sensor_id;sensor_type;location;lat;lon;timestamp;pressure;altitude;pressure_sealevel;temperature;humidity
20622;BME280;10470;42.670;23.354;2023-03-18T00:02:03;95202.94;;;2.11;100.00
20622;BME280;10470;42.670;23.354;2023-03-18T00:04:29;95215.22;;;2.23;100.00
20622;BME280;10470;42.670;23.354;2023-03-18T00:06:55;95212.16;;;2.31;100.00
20622;BME280;10470;42.670;23.354;2023-03-18T00:09:21;95205.25;;;2.23;100.00
20622;BME280;10470;42.670;23.354;2023-03-18T00:11:47;95202.16;;;2.25;100.00
20622;BME280;10470;42.670;23.354;2023-03-18T00:14:13;95201.03;;;2.18;100.00
20622;BME280;10470;42.670;23.354;2023-03-18T00:16:38;95192.94;;;2.22;100.00
20622;BME280;10470;42.670;23.354;2023-03-18T00:19:05;95200.63;;;2.24;100.00
20622;BME280;10470;42.670;23.354;2023-03-18T00:21:31;95196.75;;;2.07;100.00
20622;BME280;10470;42.670;23.354;2023-03-18T00:23:57;95190.25;;;2.26;100.00
20622;BME280;10470;42.670;23.354;2023-03-18T00:26:24;95187.94;;;2.10;100.00
20622;BME280;10470;42.670;23.354;2023-03-18T00:28:52;95182.94;;;2.05;100.00
20622;BME280;10470;42.670;23.354;2023-03-18T00:31:19;95186.41;;;2.09;100.00
20622;BME280;10470;42.670;23.354;2023-03-18T00:33:45;95180.63;;;1.96;100.00
20622;BME280;10470;42.670;23.354;2023-03-18T00:36:12;95176.81;;;2.01;100.00
20622;BME280;10470;42.670;23.354;2023-03-18T00:38:42;95177.19;;;2.03;100.00
20622;BME280;10470;42.670;23.354;2023-03-18T00:41:08;95174.50;;;2.06;100.00
20622;BME280;10470;42.670;23.354;2023-03-18T00:43:47;95172.59;;;2.17;100.00
20622;BME280;10470;42.670;23.354;2023-03-18T00:48:47;95161.06;;;1.95;100.00
20622;BME280;10470;42.670;23.354;2023-03-18T00:51:13;95151.47;;;1.98;100.00
20622;BME280;10470;42.670;23.354;2023-03-18T00:53:43;95152.25;;;1.95;100.00
20622;BME280;10470;42.670;23.354;2023-03-18T00:56:10;95144.91;;;1.88;100.00
20622;BME280;10470;42.670;23.354;2023-03-18T00:58:36;95138.38;;;1.79;100.00
20622;BME280;10470;42.670;23.354;2023-03-18T01:01:03;95139.94;;;1.94;100.00
20622;BME280;10470;42.670;23.354;2023-03-18T01:03:29;95144.19;;;1.95;100.00
20622;BME280;10470;42.670;23.354;2023-03-18T01:05:56;95135.25;;;1.51;100.00
20622;BME280;10470;42.670;23.354;2023-03-18T01:08:22;95134.16;;;1.70;100.00
20622;BME280;10470;42.670;23.354;2023-03-18T01:10:47;95131.50;;;1.85;100.00
20622;BME280;10470;42.670;23.354;2023-03-18T01:13:14;95128.00;;;1.73;100.00
20622;BME280;10470;42.670;23.354;2023-03-18T01:15:39;95132.63;;;1.94;100.00
20622;BME280;10470;42.670;23.354;2023-03-18T01:18:06;95128.78;;;1.78;100.00
20622;BME280;10470;42.670;23.354;2023-03-18T01:20:33;95123.41;;;1.81;100.00
20622;BME280;10470;42.670;23.354;2023-03-18T01:22:58;95128.78;;;1.92;100.00
20622;BME280;10470;42.670;23.354;2023-03-18T01:25:25;95129.56;;;1.78;100.00
20622;BME280;10470;42.670;23.354;2023-03-18T01:27:51;95131.47;;;1.78;100.00
20622;BME280;10470;42.670;23.354;2023-03-18T01:30:18;95121.91;;;1.77;100.00
20622;BME280;10470;42.670;23.354;2023-03-18T01:32:43;95111.13;;;1.62;100.00
20622;BME280;10470;42.670;23.354;2023-03-18T01:35:09;95118.81;;;1.74;100.00
20622;BME280;10470;42.670;23.354;2023-03-18T01:37:37;95119.56;;;1.79;100.00
20622;BME280;10470;42.670;23.354;2023-03-18T01:40:03;95122.66;;;1.81;100.00
20622;BME280;10470;42.670;23.354;2023-03-18T01:42:28;95127.28;;;1.77;100.00
20622;BME280;10470;42.670;23.354;2023-03-18T01:47:42;95122.66;;;1.88;100.00
20622;BME280;10470;42.670;23.354;2023-03-18T01:50:10;95120.38;;;1.79;100.00
20622;BME280;10470;42.670;23.354;2023-03-18T01:52:37;95120.72;;;1.78;100.00
20622;BME280;10470;42.670;23.354;2023-03-18T01:55:10;95126.50;;;1.69;100.00
20622;BME280;10470;42.670;23.354;2023-03-18T01:57:37;95119.97;;;1.81;100.00
20622;BME280;10470;42.670;23.354;2023-03-18T02:00:04;95106.09;;;1.50;100.00
20622;BME280;10470;42.670;23.354;2023-03-18T02:02:30;95109.22;;;1.73;100.00
20622;BME280;10470;42.670;23.354;2023-03-18T02:05:04;95113.44;;;1.78;100.00
20622;BME280;10470;42.670;23.354;2023-03-18T02:07:33;95109.22;;;1.70;100.00
20622;BME280;10470;42.670;23.354;2023-03-18T02:10:03;95102.25;;;1.44;100.00
20622;BME280;10470;42.670;23.354;2023-03-18T02:12:31;95107.63;;;1.40;100.00
20622;BME280;10470;42.670;23.354;2023-03-18T02:15:00;95105.69;;;1.37;100.00
20622;BME280;10470;42.670;23.354;2023-03-18T02:17:30;95104.94;;;1.47;100.00
20622;BME280;10470;42.670;23.354;2023-03-18T02:22:57;95101.06;;;1.30;100.00
20622;BME280;10470;42.670;23.354;2023-03-18T02:28:17;95112.94;;;1.29;100.00
20622;BME280;10470;42.670;23.354;2023-03-18T02:30:50;95112.56;;;1.31;100.00
20622;BME280;10470;42.670;23.354;2023-03-18T02:33:18;95105.69;;;1.30;100.00
20622;BME280;10470;42.670;23.354;2023-03-18T02:35:47;95109.09;;;1.23;100.00
20622;BME280;10470;42.670;23.354;2023-03-18T02:38:14;95105.25;;;1.24;100.00
20622;BME280;10470;42.670;23.354;2023-03-18T02:40:41;95104.13;;;1.29;100.00
20622;BME280;10470;42.670;23.354;2023-03-18T02:43:22;95099.56;;;1.40;100.00
20622;BME280;10470;42.670;23.354;2023-03-18T02:48:44;95099.53;;;1.22;100.00
20622;BME280;10470;42.670;23.354;2023-03-18T02:51:11;95101.06;;;1.30;100.00
20622;BME280;10470;42.670;23.354;2023-03-18T02:53:38;95103.31;;;1.14;100.00
20622;BME280;10470;42.670;23.354;2023-03-18T02:56:04;95106.06;;;1.25;100.00
20622;BME280;10470;42.670;23.354;2023-03-18T02:58:31;95100.25;;;1.12;100.00
20622;BME280;10470;42.670;23.354;2023-03-18T03:00:56;95101.78;;;1.09;100.00
20622;BME280;10470;42.670;23.354;2023-03-18T03:03:23;95090.28;;;1.09;100.00
20622;BME280;10470;42.670;23.354;2023-03-18T03:05:48;95100.25;;;1.12;100.00
20622;BME280;10470;42.670;23.354;2023-03-18T03:08:14;95102.22;;;1.22;100.00
20622;BME280;10470;42.670;23.354;2023-03-18T03:10:40;95111.75;;;1.13;100.00
20622;BME280;10470;42.670;23.354;2023-03-18T03:13:06;95111.41;;;1.25;100.00
20622;BME280;10470;42.670;23.354;2023-03-18T03:15:34;95109.84;;;1.13;100.00
20622;BME280;10470;42.670;23.354;2023-03-18T03:18:01;95110.59;;;1.10;100.00
20622;BME280;10470;42.670;23.354;2023-03-18T03:20:26;95107.50;;;1.08;100.00
20622;BME280;10470;42.670;23.354;2023-03-18T03:22:52;95110.94;;;1.01;100.00
20622;BME280;10470;42.670;23.354;2023-03-18T03:25:18;95102.91;;;1.08;100.00
20622;BME280;10470;42.670;23.354;2023-03-18T03:27:43;95113.66;;;1.12;100.00
20622;BME280;10470;42.670;23.354;2023-03-18T03:30:11;95119.03;;;1.16;100.00
20622;BME280;10470;42.670;23.354;2023-03-18T03:32:36;95120.88;;;1.01;100.00
20622;BME280;10470;42.670;23.354;2023-03-18T03:35:03;95122.44;;;1.05;100.00
20622;BME280;10470;42.670;23.354;2023-03-18T03:37:29;95120.16;;;1.07;100.00
20622;BME280;10470;42.670;23.354;2023-03-18T03:39:54;95117.84;;;0.99;100.00
20622;BME280;10470;42.670;23.354;2023-03-18T03:42:20;95125.81;;;0.84;100.00
20622;BME280;10470;42.670;23.354;2023-03-18T03:44:45;95119.31;;;0.93;100.00
20622;BME280;10470;42.670;23.354;2023-03-18T03:47:11;95122.75;;;0.86;100.00
20622;BME280;10470;42.670;23.354;2023-03-18T03:49:37;95117.47;;;1.04;100.00
20622;BME280;10470;42.670;23.354;2023-03-18T03:52:03;95122.84;;;1.07;100.00
20622;BME280;10470;42.670;23.354;2023-03-18T03:54:28;95128.56;;;1.06;100.00
20622;BME280;10470;42.670;23.354;2023-03-18T03:56:54;95124.41;;;1.12;100.00
20622;BME280;10470;42.670;23.354;2023-03-18T03:59:20;95134.75;;;1.10;100.00
20622;BME280;10470;42.670;23.354;2023-03-18T04:01:45;95129.78;;;1.12;100.00
20622;BME280;10470;42.670;23.354;2023-03-18T04:04:11;95129.78;;;1.12;100.00
20622;BME280;10470;42.670;23.354;2023-03-18T04:06:37;95139.72;;;1.08;100.00
20622;BME280;10470;42.670;23.354;2023-03-18T04:09:03;95134.72;;;1.06;100.00
20622;BME280;10470;42.670;23.354;2023-03-18T04:11:29;95137.81;;;1.12;100.00
20622;BME280;10470;42.670;23.354;2023-03-18T04:13:55;95136.97;;;1.01;100.00
20622;BME280;10470;42.670;23.354;2023-03-18T04:16:21;95148.50;;;1.05;100.00
20622;BME280;10470;42.670;23.354;2023-03-18T04:18:47;95147.31;;;0.92;100.00
20622;BME280;10470;42.670;23.354;2023-03-18T04:21:12;95149.94;;;0.88;100.00
20622;BME280;10470;42.670;23.354;2023-03-18T04:23:39;95152.22;;;0.79;100.00
20622;BME280;10470;42.670;23.354;2023-03-18T04:26:05;95152.63;;;0.81;100.00
20622;BME280;10470;42.670;23.354;2023-03-18T04:28:30;95165.28;;;0.87;100.00
20622;BME280;10470;42.670;23.354;2023-03-18T04:30:57;95168.41;;;0.97;100.00
20622;BME280;10470;42.670;23.354;2023-03-18T04:33:22;95163.28;;;0.74;100.00
20622;BME280;10470;42.670;23.354;2023-03-18T04:35:48;95168.72;;;0.81;100.00
20622;BME280;10470;42.670;23.354;2023-03-18T04:38:13;95161.44;;;0.81;100.00
20622;BME280;10470;42.670;23.354;2023-03-18T04:40:39;95167.13;;;0.73;100.00
20622;BME280;10470;42.670;23.354;2023-03-18T04:43:07;95172.50;;;0.80;100.00
20622;BME280;10470;42.670;23.354;2023-03-18T04:45:34;95175.22;;;0.83;100.00
20622;BME280;10470;42.670;23.354;2023-03-18T04:48:00;95183.31;;;0.91;100.00
20622;BME280;10470;42.670;23.354;2023-03-18T04:50:26;95183.66;;;0.82;100.00
20622;BME280;10470;42.670;23.354;2023-03-18T04:52:52;95183.66;;;0.82;100.00
20622;BME280;10470;42.670;23.354;2023-03-18T04:55:18;95186.69;;;0.80;100.00
20622;BME280;10470;42.670;23.354;2023-03-18T04:57:46;95193.19;;;0.76;100.00
20622;BME280;10470;42.670;23.354;2023-03-18T05:00:14;95188.25;;;0.85;100.00
20622;BME280;10470;42.670;23.354;2023-03-18T05:02:41;95189.47;;;0.91;100.00
20622;BME280;10470;42.670;23.354;2023-03-18T05:05:07;95179.91;;;0.97;100.00
20622;BME280;10470;42.670;23.354;2023-03-18T05:07:32;95194.84;;;0.95;100.00
20622;BME280;10470;42.670;23.354;2023-03-18T05:09:58;95186.72;;;0.87;100.00
20622;BME280;10470;42.670;23.354;2023-03-18T05:12:23;95179.09;;;0.90;100.00
20622;BME280;10470;42.670;23.354;2023-03-18T05:14:50;95183.78;;;1.07;100.00
20622;BME280;10470;42.670;23.354;2023-03-18T05:17:16;95177.28;;;1.08;100.00
20622;BME280;10470;42.670;23.354;2023-03-18T05:19:44;95178.06;;;1.19;100.00
20622;BME280;10470;42.670;23.354;2023-03-18T05:22:11;95169.25;;;1.15;100.00
20622;BME280;10470;42.670;23.354;2023-03-18T05:24:38;95182.59;;;1.01;100.00
20622;BME280;10470;42.670;23.354;2023-03-18T05:27:04;95168.09;;;1.13;100.00
20622;BME280;10470;42.670;23.354;2023-03-18T05:29:29;95169.25;;;1.15;100.00
20622;BME280;10470;42.670;23.354;2023-03-18T05:31:55;95169.31;;;1.22;100.00
20622;BME280;10470;42.670;23.354;2023-03-18T05:34:21;95165.09;;;1.32;100.00
20622;BME280;10470;42.670;23.354;2023-03-18T05:36:46;95164.75;;;1.41;100.00
20622;BME280;10470;42.670;23.354;2023-03-18T05:39:12;95172.47;;;1.60;100.00
20622;BME280;10470;42.670;23.354;2023-03-18T05:41:37;95177.91;;;1.74;100.00
20622;BME280;10470;42.670;23.354;2023-03-18T05:44:03;95177.53;;;1.83;100.00
20622;BME280;10470;42.670;23.354;2023-03-18T05:46:30;95185.59;;;1.83;100.00
20622;BME280;10470;42.670;23.354;2023-03-18T05:48:56;95187.16;;;1.95;100.00
20622;BME280;10470;42.670;23.354;2023-03-18T05:51:21;95186.78;;;2.07;100.00
20622;BME280;10470;42.670;23.354;2023-03-18T05:53:47;95186.03;;;2.17;100.00
20622;BME280;10470;42.670;23.354;2023-03-18T05:56:12;95191.03;;;2.33;100.00
20622;BME280;10470;42.670;23.354;2023-03-18T05:58:39;95201.38;;;2.17;100.00
20622;BME280;10470;42.670;23.354;2023-03-18T06:01:04;95204.09;;;2.35;100.00
20622;BME280;10470;42.670;23.354;2023-03-18T06:03:32;95209.84;;;2.33;100.00
20622;BME280;10470;42.670;23.354;2023-03-18T06:05:59;95201.41;;;2.35;100.00
20622;BME280;10470;42.670;23.354;2023-03-18T06:08:26;95202.56;;;2.16;100.00
20622;BME280;10470;42.670;23.354;2023-03-18T06:10:51;95204.84;;;2.25;100.00
20622;BME280;10470;42.670;23.354;2023-03-18T06:13:17;95207.94;;;2.48;100.00
20622;BME280;10470;42.670;23.354;2023-03-18T06:15:43;95201.41;;;2.38;100.00
20622;BME280;10470;42.670;23.354;2023-03-18T06:18:09;95202.56;;;2.34;100.00
20622;BME280;10470;42.670;23.354;2023-03-18T06:20:35;95202.16;;;2.28;100.00
20622;BME280;10470;42.670;23.354;2023-03-18T06:23:00;95212.94;;;2.32;100.00
20622;BME280;10470;42.670;23.354;2023-03-18T06:25:26;95202.16;;;2.28;100.00
20622;BME280;10470;42.670;23.354;2023-03-18T06:27:51;95204.13;;;2.49;100.00
20622;BME280;10470;42.670;23.354;2023-03-18T06:30:17;95203.69;;;2.79;100.00
20622;BME280;10470;42.670;23.354;2023-03-18T06:32:43;95200.25;;;2.79;100.00
20622;BME280;10470;42.670;23.354;2023-03-18T06:35:10;95195.63;;;2.76;100.00
20622;BME280;10470;42.670;23.354;2023-03-18T06:37:36;95197.16;;;2.84;100.00
20622;BME280;10470;42.670;23.354;2023-03-18T06:40:02;95187.94;;;2.96;100.00
20622;BME280;10470;42.670;23.354;2023-03-18T06:42:30;95184.47;;;2.92;100.00
20622;BME280;10470;42.670;23.354;2023-03-18T06:44:56;95184.81;;;3.01;100.00
20622;BME280;10470;42.670;23.354;2023-03-18T06:47:22;95184.75;;;3.30;100.00
20622;BME280;10470;42.670;23.354;2023-03-18T06:49:48;95188.97;;;3.38;100.00
20622;BME280;10470;42.670;23.354;2023-03-18T06:52:14;95187.03;;;3.38;100.00
20622;BME280;10470;42.670;23.354;2023-03-18T06:54:40;95191.22;;;3.54;100.00
20622;BME280;10470;42.670;23.354;2023-03-18T06:57:05;95198.66;;;3.03;100.00
20622;BME280;10470;42.670;23.354;2023-03-18T06:59:32;95192.75;;;3.47;100.00
20622;BME280;10470;42.670;23.354;2023-03-18T07:01:57;95187.28;;;3.72;100.00
20622;BME280;10470;42.670;23.354;2023-03-18T07:04:23;95177.78;;;3.43;100.00
20622;BME280;10470;42.670;23.354;2023-03-18T07:06:50;95185.41;;;3.59;100.00
20622;BME280;10470;42.670;23.354;2023-03-18T07:09:17;95182.63;;;3.73;100.00
20622;BME280;10470;42.670;23.354;2023-03-18T07:11:43;95190.75;;;3.69;100.00
20622;BME280;10470;42.670;23.354;2023-03-18T07:14:11;95193.13;;;3.57;100.00
20622;BME280;10470;42.670;23.354;2023-03-18T07:16:39;95190.25;;;3.92;100.00
20622;BME280;10470;42.670;23.354;2023-03-18T07:19:05;95179.44;;;4.00;100.00
20622;BME280;10470;42.670;23.354;2023-03-18T07:21:31;95194.00;;;4.09;100.00
20622;BME280;10470;42.670;23.354;2023-03-18T07:23:57;95186.69;;;4.06;100.00
20622;BME280;10470;42.670;23.354;2023-03-18T07:26:22;95178.44;;;3.68;100.00
20622;BME280;10470;42.670;23.354;2023-03-18T07:28:48;95179.63;;;3.60;100.00
20622;BME280;10470;42.670;23.354;2023-03-18T07:31:13;95191.94;;;3.61;100.00
20622;BME280;10470;42.670;23.354;2023-03-18T07:33:39;95193.84;;;3.64;100.00
20622;BME280;10470;42.670;23.354;2023-03-18T07:36:04;95199.03;;;4.04;100.00
20622;BME280;10470;42.670;23.354;2023-03-18T07:38:30;95198.94;;;4.22;100.00
20622;BME280;10470;42.670;23.354;2023-03-18T07:40:55;95193.75;;;3.86;100.00
20622;BME280;10470;42.670;23.354;2023-03-18T07:43:22;95194.50;;;3.90;100.00
20622;BME280;10470;42.670;23.354;2023-03-18T07:45:47;95195.75;;;3.67;100.00
20622;BME280;10470;42.670;23.354;2023-03-18T07:48:13;95206.66;;;4.16;100.00
20622;BME280;10470;42.670;23.354;2023-03-18T07:50:38;95200.38;;;3.67;100.00
20622;BME280;10470;42.670;23.354;2023-03-18T07:53:05;95199.50;;;3.88;100.00
20622;BME280;10470;42.670;23.354;2023-03-18T07:55:31;95172.91;;;3.93;100.00
20622;BME280;10470;42.670;23.354;2023-03-18T07:57:56;95197.38;;;4.24;100.00
20622;BME280;10470;42.670;23.354;2023-03-18T08:00:22;95201.72;;;4.63;100.00
20622;BME280;10470;42.670;23.354;2023-03-18T08:02:48;95197.25;;;4.91;100.00
20622;BME280;10470;42.670;23.354;2023-03-18T08:05:13;95194.13;;;4.92;100.00
20622;BME280;10470;42.670;23.354;2023-03-18T08:07:40;95200.69;;;4.91;100.00
20622;BME280;10470;42.670;23.354;2023-03-18T08:10:06;95190.69;;;4.88;100.00
20622;BME280;10470;42.670;23.354;2023-03-18T08:12:33;95195.00;;;5.20;100.00
20622;BME280;10470;42.670;23.354;2023-03-18T08:14:58;95197.66;;;5.23;100.00
20622;BME280;10470;42.670;23.354;2023-03-18T08:17:24;95202.56;;;5.36;100.00
20622;BME280;10470;42.670;23.354;2023-03-18T08:19:50;95201.63;;;5.50;100.00
20622;BME280;10470;42.670;23.354;2023-03-18T08:22:16;95207.53;;;5.41;100.00
20622;BME280;10470;42.670;23.354;2023-03-18T08:24:41;95208.59;;;5.51;100.00
20622;BME280;10470;42.670;23.354;2023-03-18T08:27:07;95211.88;;;5.65;100.00
20622;BME280;10470;42.670;23.354;2023-03-18T08:29:33;95210.88;;;5.52;100.00
20622;BME280;10470;42.670;23.354;2023-03-18T08:31:59;95207.13;;;5.42;100.00
20622;BME280;10470;42.670;23.354;2023-03-18T08:34:25;95203.69;;;5.73;100.00
20622;BME280;10470;42.670;23.354;2023-03-18T08:36:51;95197.34;;;5.86;100.00
20622;BME280;10470;42.670;23.354;2023-03-18T08:39:17;95196.41;;;6.00;100.00
20622;BME280;10470;42.670;23.354;2023-03-18T08:41:42;95195.91;;;6.36;100.00
20622;BME280;10470;42.670;23.354;2023-03-18T08:44:08;95202.25;;;6.26;100.00
20622;BME280;10470;42.670;23.354;2023-03-18T08:46:36;95199.97;;;6.48;100.00
20622;BME280;10470;42.670;23.354;2023-03-18T08:49:02;95203.03;;;6.50;100.00
20622;BME280;10470;42.670;23.354;2023-03-18T08:51:27;95200.97;;;6.34;100.00
20622;BME280;10470;42.670;23.354;2023-03-18T08:53:53;95205.75;;;6.50;100.00
20622;BME280;10470;42.670;23.354;2023-03-18T08:56:19;95208.53;;;6.70;100.00
20622;BME280;10470;42.670;23.354;2023-03-18T08:58:45;95210.78;;;6.75;100.00
20622;BME280;10470;42.670;23.354;2023-03-18T09:01:12;95210.41;;;6.73;100.00
20622;BME280;10470;42.670;23.354;2023-03-18T09:03:38;95209.53;;;7.03;100.00
20622;BME280;10470;42.670;23.354;2023-03-18T09:06:04;95211.00;;;7.08;100.00
20622;BME280;10470;42.670;23.354;2023-03-18T09:08:29;95213.78;;;6.81;100.00
20622;BME280;10470;42.670;23.354;2023-03-18T09:10:57;95210.22;;;7.07;100.00
20622;BME280;10470;42.670;23.354;2023-03-18T09:13:24;95215.44;;;6.98;100.00
20622;BME280;10470;42.670;23.354;2023-03-18T09:15:49;95212.69;;;7.21;100.00
20622;BME280;10470;42.670;23.354;2023-03-18T09:18:16;95213.50;;;7.18;100.00
20622;BME280;10470;42.670;23.354;2023-03-18T09:20:43;95214.31;;;7.39;100.00
20622;BME280;10470;42.670;23.354;2023-03-18T09:23:10;95217.66;;;7.66;100.00
20622;BME280;10470;42.670;23.354;2023-03-18T09:25:36;95222.38;;;8.02;100.00
20622;BME280;10470;42.670;23.354;2023-03-18T09:28:02;95219.94;;;7.88;100.00
20622;BME280;10470;42.670;23.354;2023-03-18T09:30:28;95224.50;;;8.11;100.00
20622;BME280;10470;42.670;23.354;2023-03-18T09:32:54;95218.28;;;7.74;100.00
20622;BME280;10470;42.670;23.354;2023-03-18T09:35:20;95218.16;;;7.81;100.00
20622;BME280;10470;42.670;23.354;2023-03-18T09:37:46;95221.56;;;8.42;100.00
20622;BME280;10470;42.670;23.354;2023-03-18T09:40:20;95213.63;;;8.31;100.00
20622;BME280;10470;42.670;23.354;2023-03-18T09:56:12;95211.66;;;8.68;100.00
20622;BME280;10470;42.670;23.354;2023-03-18T09:58:48;95220.28;;;8.46;100.00
20622;BME280;10470;42.670;23.354;2023-03-18T10:01:16;95217.59;;;8.63;100.00
20622;BME280;10470;42.670;23.354;2023-03-18T10:04:16;95218.28;;;8.83;100.00
20622;BME280;10470;42.670;23.354;2023-03-18T10:06:44;95215.97;;;8.82;97.52
20622;BME280;10470;42.670;23.354;2023-03-18T10:09:37;95210.19;;;8.63;93.64
20622;BME280;10470;42.670;23.354;2023-03-18T10:12:26;95226.16;;;8.94;89.92
20622;BME280;10470;42.670;23.354;2023-03-18T10:17:42;95201.59;;;9.14;86.41
20622;BME280;10470;42.670;23.354;2023-03-18T10:20:14;95227.28;;;9.42;84.97
20622;BME280;10470;42.670;23.354;2023-03-18T10:33:11;95200.03;;;9.58;71.03
20622;BME280;10470;42.670;23.354;2023-03-18T10:40:42;95227.47;;;10.48;62.25
20622;BME280;10470;42.670;23.354;2023-03-18T10:43:29;95220.44;;;10.98;60.31
20622;BME280;10470;42.670;23.354;2023-03-18T10:46:10;95211.53;;;10.59;59.60
20622;BME280;10470;42.670;23.354;2023-03-18T10:48:45;95210.44;;;10.95;58.55
20622;BME280;10470;42.670;23.354;2023-03-18T10:51:44;95221.31;;;11.43;57.50
20622;BME280;10470;42.670;23.354;2023-03-18T10:54:27;95215.78;;;10.60;55.66
20622;BME280;10470;42.670;23.354;2023-03-18T10:56:56;95213.88;;;11.43;55.21
20622;BME280;10470;42.670;23.354;2023-03-18T10:59:23;95213.56;;;10.93;55.00
20622;BME280;10470;42.670;23.354;2023-03-18T11:01:53;95214.53;;;11.00;54.89
20622;BME280;10470;42.670;23.354;2023-03-18T11:04:22;95203.88;;;10.92;54.36
20622;BME280;10470;42.670;23.354;2023-03-18T11:06:50;95206.72;;;10.63;54.62
20622;BME280;10470;42.670;23.354;2023-03-18T11:09:28;95211.13;;;10.48;54.17
20622;BME280;10470;42.670;23.354;2023-03-18T11:12:05;95204.94;;;10.05;55.05
20622;BME280;10470;42.670;23.354;2023-03-18T11:14:32;95211.09;;;9.51;57.76
20622;BME280;10470;42.670;23.354;2023-03-18T11:17:16;95201.63;;;9.85;58.03
20622;BME280;10470;42.670;23.354;2023-03-18T11:22:48;95198.97;;;10.11;57.45
20622;BME280;10470;42.670;23.354;2023-03-18T11:25:21;95204.34;;;10.53;55.89
20622;BME280;10470;42.670;23.354;2023-03-18T11:27:52;95203.19;;;9.86;54.96
20622;BME280;10470;42.670;23.354;2023-03-18T11:30:29;95199.66;;;10.66;55.08
20622;BME280;10470;42.670;23.354;2023-03-18T11:35:54;95198.13;;;10.39;53.59
20622;BME280;10470;42.670;23.354;2023-03-18T11:38:25;95193.13;;;11.46;53.66
20622;BME280;10470;42.670;23.354;2023-03-18T11:41:10;95191.44;;;11.61;51.98
20622;BME280;10470;42.670;23.354;2023-03-18T11:43:38;95204.25;;;11.51;51.34
20622;BME280;10470;42.670;23.354;2023-03-18T11:46:13;95199.69;;;11.70;51.45
20622;BME280;10470;42.670;23.354;2023-03-18T11:48:40;95203.56;;;11.60;52.04
20622;BME280;10470;42.670;23.354;2023-03-18T11:51:26;95201.78;;;12.10;50.48
20622;BME280;10470;42.670;23.354;2023-03-18T12:06:59;95213.06;;;11.77;50.21
20622;BME280;10470;42.670;23.354;2023-03-18T12:09:55;95212.56;;;12.36;49.81
20622;BME280;10470;42.670;23.354;2023-03-18T12:20:50;95201.38;;;13.02;47.36
20622;BME280;10470;42.670;23.354;2023-03-18T12:25:51;95195.28;;;12.98;48.00
20622;BME280;10470;42.670;23.354;2023-03-18T12:28:34;95200.31;;;12.18;47.53
20622;BME280;10470;42.670;23.354;2023-03-18T12:41:54;95186.47;;;14.13;45.47
20622;BME280;10470;42.670;23.354;2023-03-18T12:47:14;95196.28;;;14.81;43.73
20622;BME280;10470;42.670;23.354;2023-03-18T12:49:47;95186.91;;;12.83;46.74
20622;BME280;10470;42.670;23.354;2023-03-18T12:57:37;95196.75;;;11.08;48.64
20622;BME280;10470;42.670;23.354;2023-03-18T13:00:19;95179.88;;;11.35;48.70
20622;BME280;10470;42.670;23.354;2023-03-18T13:02:55;95189.66;;;11.45;48.38
20622;BME280;10470;42.670;23.354;2023-03-18T13:05:37;95194.72;;;16.30;42.70
20622;BME280;10470;42.670;23.354;2023-03-18T13:11:07;95189.84;;;15.41;41.26
20622;BME280;10470;42.670;23.354;2023-03-18T13:13:35;95192.13;;;14.52;42.02
20622;BME280;10470;42.670;23.354;2023-03-18T13:16:04;95190.34;;;15.93;41.66
20622;BME280;10470;42.670;23.354;2023-03-18T13:18:51;95193.41;;;15.08;41.04
20622;BME280;10470;42.670;23.354;2023-03-18T13:21:22;95196.09;;;13.17;43.87
20622;BME280;10470;42.670;23.354;2023-03-18T13:29:39;95190.06;;;12.81;43.53
20622;BME280;10470;42.670;23.354;2023-03-18T13:44:07;95184.88;;;13.51;40.43
20622;BME280;10470;42.670;23.354;2023-03-18T13:46:36;95195.34;;;15.80;40.49
20622;BME280;10470;42.670;23.354;2023-03-18T13:49:02;95197.97;;;19.23;35.01
20622;BME280;10470;42.670;23.354;2023-03-18T13:53:55;95191.63;;;17.69;34.58
20622;BME280;10470;42.670;23.354;2023-03-18T13:56:43;95190.75;;;17.37;34.79
20622;BME280;10470;42.670;23.354;2023-03-18T14:01:58;95168.78;;;15.38;37.56
20622;BME280;10470;42.670;23.354;2023-03-18T14:04:45;95181.94;;;16.62;36.72
20622;BME280;10470;42.670;23.354;2023-03-18T14:07:16;95179.25;;;16.97;36.34
20622;BME280;10470;42.670;23.354;2023-03-18T14:15:00;95175.63;;;15.82;36.90
20622;BME280;10470;42.670;23.354;2023-03-18T14:22:45;95180.59;;;15.68;36.52
20622;BME280;10470;42.670;23.354;2023-03-18T14:32:58;95178.88;;;15.80;36.86
20622;BME280;10470;42.670;23.354;2023-03-18T14:35:27;95176.88;;;15.42;36.84
20622;BME280;10470;42.670;23.354;2023-03-18T14:38:14;95181.63;;;15.56;37.78
20622;BME280;10470;42.670;23.354;2023-03-18T14:40:47;95177.81;;;15.78;36.99
20622;BME280;10470;42.670;23.354;2023-03-18T14:43:26;95169.16;;;15.31;36.96
20622;BME280;10470;42.670;23.354;2023-03-18T14:46:00;95173.31;;;15.65;36.67
20622;BME280;10470;42.670;23.354;2023-03-18T14:48:29;95183.28;;;16.67;36.73
20622;BME280;10470;42.670;23.354;2023-03-18T14:50:57;95178.13;;;16.74;36.54
20622;BME280;10470;42.670;23.354;2023-03-18T14:53:37;95183.13;;;17.46;35.80
20622;BME280;10470;42.670;23.354;2023-03-18T14:56:04;95183.63;;;16.09;36.74
20622;BME280;10470;42.670;23.354;2023-03-18T14:58:32;95186.63;;;16.56;35.97
20622;BME280;10470;42.670;23.354;2023-03-18T15:01:09;95190.59;;;16.55;35.56
20622;BME280;10470;42.670;23.354;2023-03-18T15:03:42;95185.91;;;15.57;35.41
20622;BME280;10470;42.670;23.354;2023-03-18T15:06:18;95189.28;;;15.91;35.40
20622;BME280;10470;42.670;23.354;2023-03-18T15:09:02;95190.88;;;14.72;36.54
20622;BME280;10470;42.670;23.354;2023-03-18T15:11:35;95189.25;;;14.47;37.40
20622;BME280;10470;42.670;23.354;2023-03-18T15:14:02;95195.56;;;14.29;38.11
20622;BME280;10470;42.670;23.354;2023-03-18T15:16:34;95194.00;;;13.67;38.85